Time;durP1;ratioP1;P1;durP2;ratioP2;P2;SDS_P1;SDS_P2;PMS_P1;PMS_P2;Temp;Humidity;BMP_temperature;BMP_pressure;BME280_temperature;BME280_humidity;BME280_pressure;Samples;Min_cycle;Max_cycle;Signal;HPM_P1;HPM_P2
2021/07/22 00:02:10;;;;;;;6.10;1.63;;;;;;;16.52;100.00;100709.31;5011886;28;20383;-72
2021/07/22 00:05:14;;;;;;;4.90;1.10;;;;;;;16.50;100.00;100700.59;5012051;28;20053;-72
2021/07/22 00:08:17;;;;;;;5.53;1.65;;;;;;;16.46;100.00;100694.38;5012022;28;20112;-72
2021/07/22 00:11:20;;;;;;;8.93;1.20;;;;;;;16.44;100.00;100702.56;5011725;28;20048;-72
2021/07/22 00:14:28;;;;;;;5.93;1.48;;;;;;;16.39;100.00;100700.47;5011623;28;20049;-74
2021/07/22 00:17:32;;;;;;;8.05;1.02;;;;;;;16.32;100.00;100700.13;5011900;28;20061;-72
2021/07/22 00:20:35;;;;;;;2.85;0.85;;;;;;;16.25;100.00;100692.91;5014735;28;20409;-72
2021/07/22 00:23:38;;;;;;;10.50;1.90;;;;;;;16.24;100.00;100691.34;5015094;28;20053;-73
2021/07/22 00:26:41;;;;;;;7.18;1.88;;;;;;;16.20;100.00;100704.84;5015130;28;20765;-73
2021/07/22 00:29:45;;;;;;;4.97;1.05;;;;;;;16.15;100.00;100699.16;5013835;28;20052;-71
2021/07/22 00:32:48;;;;;;;6.10;1.40;;;;;;;16.12;100.00;100692.50;5013447;28;20049;-72
2021/07/22 00:35:53;;;;;;;6.35;1.55;;;;;;;16.06;100.00;100691.66;5013586;28;20057;-72
2021/07/22 00:38:56;;;;;;;5.35;2.03;;;;;;;16.03;100.00;100695.44;5013690;28;20057;-73
2021/07/22 00:42:00;;;;;;;5.43;1.48;;;;;;;16.05;100.00;100698.53;5013697;28;20045;-73
2021/07/22 00:45:04;;;;;;;4.95;1.25;;;;;;;16.02;100.00;100698.75;5013730;28;20052;-73
2021/07/22 00:48:07;;;;;;;5.13;1.17;;;;;;;16.00;100.00;100696.44;5013554;28;20816;-73
2021/07/22 00:51:11;;;;;;;8.15;2.22;;;;;;;15.94;100.00;100690.75;5012802;28;20065;-73
2021/07/22 00:54:14;;;;;;;3.00;1.10;;;;;;;15.84;100.00;100699.81;5013107;28;20060;-73
2021/07/22 00:57:17;;;;;;;4.00;1.27;;;;;;;15.86;100.00;100700.09;5013059;28;20505;-73
2021/07/22 01:00:21;;;;;;;3.15;1.30;;;;;;;15.81;100.00;100700.78;5012798;28;20053;-72
2021/07/22 01:03:24;;;;;;;13.35;2.33;;;;;;;15.75;100.00;100703.53;5024233;28;20048;-73
2021/07/22 01:06:28;;;;;;;6.25;1.25;;;;;;;15.72;100.00;100700.94;5014110;28;20486;-73
2021/07/22 01:09:31;;;;;;;2.83;1.25;;;;;;;15.71;100.00;100699.38;5013559;28;20053;-72
2021/07/22 01:12:35;;;;;;;2.83;0.90;;;;;;;15.69;100.00;100702.69;5019108;28;20052;-72
2021/07/22 01:15:38;;;;;;;8.50;2.45;;;;;;;15.60;100.00;100704.84;5033540;28;20076;-73
2021/07/22 01:18:41;;;;;;;4.32;1.30;;;;;;;15.57;100.00;100703.03;5033470;28;20048;-72
2021/07/22 01:21:45;;;;;;;3.67;1.73;;;;;;;15.54;100.00;100698.38;5033283;28;20064;-72
2021/07/22 01:24:48;;;;;;;4.57;1.40;;;;;;;15.52;100.00;100696.06;5033196;28;20057;-72
2021/07/22 01:27:52;;;;;;;7.55;2.03;;;;;;;15.45;100.00;100692.88;5033621;28;20049;-72
2021/07/22 01:30:56;;;;;;;3.78;1.58;;;;;;;15.45;100.00;100695.69;5031529;28;20537;-74
2021/07/22 01:34:00;;;;;;;13.68;2.03;;;;;;;15.44;100.00;100692.09;5032914;28;20509;-72
2021/07/22 01:37:03;;;;;;;4.53;1.10;;;;;;;15.41;100.00;100689.50;5034279;28;20033;-71
2021/07/22 01:40:09;;;;;;;7.70;1.83;;;;;;;15.43;100.00;100698.19;5033977;28;20433;-71
2021/07/22 01:43:12;;;;;;;3.00;0.75;;;;;;;15.36;100.00;100699.38;5033900;28;20056;-71
2021/07/22 01:46:19;;;;;;;3.40;0.75;;;;;;;15.34;100.00;100689.88;5032179;28;20440;-71
2021/07/22 01:49:24;;;;;;;5.80;1.95;;;;;;;15.28;100.00;100692.63;5033747;28;20532;-72
2021/07/22 01:52:28;;;;;;;3.95;1.33;;;;;;;15.30;100.00;100692.13;5033566;28;20501;-71
2021/07/22 01:55:31;;;;;;;6.10;0.70;;;;;;;15.20;100.00;100692.25;5033299;28;20068;-71
2021/07/22 01:58:35;;;;;;;4.93;1.73;;;;;;;15.14;100.00;100691.38;5033445;28;20060;-71
2021/07/22 02:01:38;;;;;;;4.95;1.48;;;;;;;15.12;100.00;100687.53;5033031;28;20053;-71
2021/07/22 02:04:42;;;;;;;8.35;1.55;;;;;;;15.12;100.00;100687.53;5033384;28;20067;-71
2021/07/22 02:07:46;;;;;;;3.85;1.08;;;;;;;15.07;100.00;100688.97;5033545;28;20052;-72
2021/07/22 02:10:49;;;;;;;3.25;0.55;;;;;;;15.03;100.00;100690.44;5033420;28;20398;-71
2021/07/22 02:13:52;;;;;;;2.03;0.90;;;;;;;14.96;100.00;100688.81;5033313;28;20109;-71
2021/07/22 02:16:56;;;;;;;14.88;1.83;;;;;;;14.96;100.00;100682.44;5032746;28;20436;-71
2021/07/22 02:19:59;;;;;;;5.13;1.17;;;;;;;15.00;100.00;100680.97;5033276;28;20041;-72
2021/07/22 02:23:02;;;;;;;5.10;1.40;;;;;;;15.01;100.00;100681.72;5033300;28;20049;-72
2021/07/22 02:26:07;;;;;;;7.18;1.45;;;;;;;14.94;100.00;100680.09;5033259;28;20061;-72
2021/07/22 02:29:10;;;;;;;2.40;0.75;;;;;;;14.87;100.00;100688.94;5032342;28;20048;-72
2021/07/22 02:32:14;;;;;;;7.40;1.83;;;;;;;14.84;100.00;100681.47;5032960;28;20544;-72
2021/07/22 02:35:17;;;;;;;4.45;0.95;;;;;;;14.85;100.00;100687.84;5032936;28;20057;-72
2021/07/22 02:38:20;;;;;;;5.53;1.17;;;;;;;14.79;100.00;100681.38;5032760;28;20053;-72
2021/07/22 02:41:24;;;;;;;4.25;1.02;;;;;;;14.78;100.00;100683.41;5032603;28;20068;-72
2021/07/22 02:44:27;;;;;;;4.35;1.15;;;;;;;14.75;100.00;100678.00;5032513;28;20048;-72
2021/07/22 02:47:30;;;;;;;4.38;1.30;;;;;;;14.67;100.00;100674.81;5032571;28;20061;-72
2021/07/22 02:50:34;;;;;;;7.68;1.15;;;;;;;14.63;100.00;100674.22;5032936;28;20052;-72
2021/07/22 02:53:38;;;;;;;5.95;1.45;;;;;;;14.59;100.00;100675.69;5032641;28;20061;-72
2021/07/22 02:56:41;;;;;;;4.78;0.93;;;;;;;14.58;100.00;100676.94;5032389;28;20076;-73
2021/07/22 02:59:44;;;;;;;5.68;1.40;;;;;;;14.58;100.00;100674.91;5031641;28;20053;-72
2021/07/22 03:02:48;;;;;;;9.82;1.80;;;;;;;14.57;100.00;100676.19;5033183;28;20052;-72
2021/07/22 03:05:51;;;;;;;2.38;1.58;;;;;;;14.49;100.00;100672.19;5031973;28;20056;-72
2021/07/22 03:08:54;;;;;;;3.75;0.95;;;;;;;14.46;100.00;100666.78;5032463;28;20060;-72
2021/07/22 03:11:58;;;;;;;4.15;1.00;;;;;;;14.44;100.00;100673.63;5031907;28;20068;-72
2021/07/22 03:15:02;;;;;;;2.60;1.33;;;;;;;14.44;100.00;100670.84;5032130;28;20049;-72
2021/07/22 03:18:05;;;;;;;12.30;1.80;;;;;;;14.37;100.00;100667.66;5032197;28;20052;-72
2021/07/22 03:21:08;;;;;;;6.88;1.33;;;;;;;14.35;100.00;100667.34;5032779;28;20049;-72
2021/07/22 03:24:12;;;;;;;9.38;2.03;;;;;;;14.30;100.00;100674.41;5032294;28;20052;-72
2021/07/22 03:27:15;;;;;;;3.92;0.98;;;;;;;14.29;100.00;100669.28;5032046;28;20053;-72
2021/07/22 03:30:18;;;;;;;3.15;1.27;;;;;;;14.29;100.00;100672.09;5032211;28;20513;-72
2021/07/22 03:33:22;;;;;;;5.13;1.60;;;;;;;14.32;100.00;100673.91;5031757;28;20052;-71
2021/07/22 03:36:25;;;;;;;4.65;1.30;;;;;;;14.30;100.00;100670.81;5031991;28;20069;-72
2021/07/22 03:39:28;;;;;;;3.97;1.20;;;;;;;14.20;100.00;100667.31;5031885;28;20060;-72
2021/07/22 03:42:32;;;;;;;1.95;0.93;;;;;;;14.15;100.00;100675.59;5032126;28;20056;-72
2021/07/22 03:45:35;;;;;;;2.15;1.02;;;;;;;14.13;100.00;100678.13;5032052;28;20068;-72
2021/07/22 03:48:38;;;;;;;7.18;1.00;;;;;;;14.10;100.00;100676.25;5031985;28;20080;-72
2021/07/22 03:51:42;;;;;;;1.83;0.90;;;;;;;14.06;100.00;100667.28;5031885;28;20505;-72
2021/07/22 03:54:45;;;;;;;2.70;1.35;;;;;;;13.95;100.00;100681.84;5033507;28;20143;-72
2021/07/22 03:57:49;;;;;;;5.63;0.85;;;;;;;13.91;100.00;100680.47;5035831;28;20056;-72
2021/07/22 04:00:54;;;;;;;6.00;1.50;;;;;;;13.91;100.00;100663.66;5035695;28;20519;-72
2021/07/22 04:03:58;;;;;;;7.78;1.65;;;;;;;13.91;100.00;100683.25;5035327;28;20068;-72
2021/07/22 04:07:02;;;;;;;7.22;1.13;;;;;;;13.95;100.00;100667.06;5035649;28;20053;-72
2021/07/22 04:10:05;;;;;;;3.38;1.08;;;;;;;13.91;100.00;100677.66;5035727;28;20394;-72
2021/07/22 04:13:09;;;;;;;2.80;1.48;;;;;;;13.93;100.00;100681.53;5035425;28;20049;-72
2021/07/22 04:16:12;;;;;;;7.13;2.65;;;;;;;13.92;100.00;100670.81;5035660;28;20048;-72
2021/07/22 04:19:16;;;;;;;6.50;1.83;;;;;;;13.88;100.00;100673.03;5035274;28;20402;-72
2021/07/22 04:22:19;;;;;;;2.50;1.10;;;;;;;13.87;100.00;100668.69;5035244;28;20100;-72
2021/07/22 04:25:23;;;;;;;3.55;0.98;;;;;;;13.87;100.00;100672.25;5035000;28;20052;-72
2021/07/22 04:28:26;;;;;;;1.75;0.73;;;;;;;13.92;100.00;100663.22;5034914;28;20516;-72
2021/07/22 04:31:30;;;;;;;6.60;1.63;;;;;;;13.94;100.00;100659.91;5035184;28;20064;-71
2021/07/22 04:34:33;;;;;;;3.70;1.10;;;;;;;13.96;100.00;100668.59;5035024;28;20370;-72
2021/07/22 04:37:36;;;;;;;3.58;0.82;;;;;;;13.88;100.00;100678.63;5034462;28;20071;-72
2021/07/22 04:40:40;;;;;;;3.92;1.25;;;;;;;13.80;100.00;100671.84;5034919;28;20048;-72
2021/07/22 04:43:43;;;;;;;4.88;1.15;;;;;;;13.86;100.00;100664.34;5034254;28;20104;-72
2021/07/22 04:46:46;;;;;;;3.95;1.30;;;;;;;13.83;100.00;100676.50;5034826;28;20057;-72
2021/07/22 04:49:50;;;;;;;6.40;1.42;;;;;;;13.80;100.00;100674.63;5034629;28;20053;-72
2021/07/22 04:52:53;;;;;;;3.83;0.90;;;;;;;13.83;100.00;100676.50;5034812;28;20068;-73
2021/07/22 04:55:57;;;;;;;9.48;1.23;;;;;;;13.87;100.00;100671.47;5034271;28;20524;-73
2021/07/22 04:59:00;;;;;;;5.00;0.73;;;;;;;13.89;100.00;100678.16;5032259;28;20052;-74
2021/07/22 05:02:03;;;;;;;4.18;1.52;;;;;;;13.91;100.00;100683.25;5033982;28;20053;-74
2021/07/22 05:05:07;;;;;;;6.32;1.85;;;;;;;13.93;100.00;100681.53;5030606;28;21095;-73
2021/07/22 05:08:10;;;;;;;11.73;0.75;;;;;;;13.99;100.00;100681.66;5033108;28;20581;-73
2021/07/22 05:11:14;;;;;;;2.95;0.40;;;;;;;14.05;100.00;100679.75;5033887;28;20042;-73
2021/07/22 05:14:17;;;;;;;8.65;2.33;;;;;;;14.04;100.00;100678.19;5037833;28;20052;-73
2021/07/22 05:17:21;;;;;;;6.03;0.75;;;;;;;14.10;100.00;100679.06;5032274;28;20044;-73
2021/07/22 05:20:24;;;;;;;3.67;1.00;;;;;;;14.16;100.00;100683.53;5034281;28;20048;-74
2021/07/22 05:23:27;;;;;;;2.58;1.15;;;;;;;14.26;100.00;100681.41;5034425;28;20056;-73
2021/07/22 05:26:30;;;;;;;3.60;1.08;;;;;;;14.34;100.00;100682.63;5034167;28;20053;-74
2021/07/22 05:29:34;;;;;;;6.07;1.58;;;;;;;14.41;100.00;100682.25;5050667;28;20044;-73
2021/07/22 05:32:38;;;;;;;4.97;1.25;;;;;;;14.46;100.00;100687.19;5043562;28;20413;-74
2021/07/22 05:35:41;;;;;;;2.85;0.88;;;;;;;14.52;100.00;100688.06;5042482;28;20056;-73
2021/07/22 05:38:45;;;;;;;4.07;1.30;;;;;;;14.60;100.00;100692.00;5019653;28;20079;-73
2021/07/22 05:41:49;;;;;;;5.03;1.23;;;;;;;14.69;100.00;100691.91;5034798;28;20109;-73
2021/07/22 05:44:52;;;;;;;5.15;1.30;;;;;;;14.79;100.00;100693.34;5023931;28;20048;-74
2021/07/22 05:47:55;;;;;;;3.17;0.40;;;;;;;14.88;100.00;100692.47;5053989;28;20056;-73
2021/07/22 05:51:01;;;;;;;2.63;1.23;;;;;;;14.93;100.00;100695.38;5046473;28;20662;-75
2021/07/22 05:54:04;;;;;;;3.28;1.30;;;;;;;15.03;100.00;100694.00;5032914;28;20049;-73
2021/07/22 05:57:07;;;;;;;4.50;1.30;;;;;;;15.05;100.00;100701.97;5031219;28;20053;-73
2021/07/22 06:00:11;;;;;;;3.33;1.00;;;;;;;15.09;100.00;100702.53;5031622;28;20509;-74
2021/07/22 06:03:15;;;;;;;8.90;2.38;;;;;;;15.22;100.00;100699.41;5034241;28;20056;-73
2021/07/22 06:06:18;;;;;;;3.38;1.23;;;;;;;15.33;100.00;100700.38;5031986;28;20048;-74
2021/07/22 06:09:22;;;;;;;2.60;1.05;;;;;;;15.47;100.00;100698.78;5042944;28;20056;-73
2021/07/22 06:12:29;;;;;;;1.02;0.65;;;;;;;15.62;100.00;100699.50;5032590;28;20049;-73
2021/07/22 06:15:33;;;;;;;6.47;1.55;;;;;;;15.74;100.00;100701.22;5030751;28;20045;-73
2021/07/22 06:18:38;;;;;;;7.85;2.35;;;;;;;15.87;100.00;100696.03;5030706;28;20060;-73
2021/07/22 06:21:41;;;;;;;7.13;1.98;;;;;;;16.00;100.00;100696.44;5031683;28;20438;-74
2021/07/22 06:24:44;;;;;;;8.55;1.15;;;;;;;16.06;100.00;100700.09;5031222;28;20505;-73
2021/07/22 06:27:48;;;;;;;9.07;1.92;;;;;;;16.14;100.00;100701.19;5029984;28;20041;-73
2021/07/22 06:30:52;;;;;;;9.60;1.95;;;;;;;16.28;100.00;100697.53;5030753;28;20056;-73
2021/07/22 06:33:56;;;;;;;4.05;1.52;;;;;;;16.40;100.00;100699.19;5032599;28;20540;-73
2021/07/22 06:37:00;;;;;;;12.27;2.05;;;;;;;16.53;100.00;100698.84;5032978;28;20056;-73
2021/07/22 06:40:04;;;;;;;6.78;1.40;;;;;;;16.64;100.00;100698.94;5032710;28;20045;-73
2021/07/22 06:43:09;;;;;;;2.75;1.05;;;;;;;16.76;100.00;100699.84;5032338;28;20501;-73
2021/07/22 06:46:12;;;;;;;6.10;1.38;;;;;;;16.86;100.00;100692.75;5032108;28;20060;-73
2021/07/22 06:49:15;;;;;;;4.63;1.77;;;;;;;17.00;100.00;100694.66;5032597;28;20064;-73
2021/07/22 06:52:19;;;;;;;5.63;1.95;;;;;;;17.10;100.00;100690.38;5032495;28;20064;-73
2021/07/22 06:55:22;;;;;;;18.65;2.17;;;;;;;17.22;100.00;100692.78;5032176;28;20045;-73
2021/07/22 06:58:25;;;;;;;6.32;1.77;;;;;;;17.32;100.00;100687.72;5032654;28;20045;-74
2021/07/22 07:01:29;;;;;;;10.73;1.30;;;;;;;17.41;100.00;100684.72;5032675;28;20536;-73
2021/07/22 07:04:32;;;;;;;8.02;1.55;;;;;;;17.50;100.00;100681.72;5032008;28;20467;-74
2021/07/22 07:07:35;;;;;;;9.93;1.63;;;;;;;17.65;100.00;100687.19;5032206;28;20053;-73
2021/07/22 07:10:39;;;;;;;6.68;2.03;;;;;;;17.80;100.00;100684.97;5032039;28;20052;-73
2021/07/22 07:13:42;;;;;;;10.82;1.92;;;;;;;17.90;100.00;100687.06;5031967;28;20060;-73
2021/07/22 07:16:45;;;;;;;6.63;2.45;;;;;;;17.97;100.00;100689.41;5032223;28;20045;-73
2021/07/22 07:19:49;;;;;;;5.28;1.63;;;;;;;18.06;100.00;100682.78;5032078;28;20048;-73
2021/07/22 07:22:56;;;;;;;16.95;2.22;;;;;;;18.16;100.00;100679.22;5032019;28;20048;-73
2021/07/22 07:26:00;;;;;;;12.40;2.13;;;;;;;18.33;100.00;100676.41;5031953;28;20041;-73
2021/07/22 07:29:03;;;;;;;9.48;2.90;;;;;;;18.51;100.00;100675.22;5031926;28;20045;-73
2021/07/22 07:32:07;;;;;;;6.22;1.17;;;;;;;18.62;100.00;100678.03;5032068;28;20053;-74
2021/07/22 07:35:11;;;;;;;13.25;3.28;;;;;;;18.84;100.00;100675.25;5032133;28;20521;-73
2021/07/22 07:38:16;;;;;;;9.10;1.77;;;;;;;18.96;100.00;100671.13;5032184;28;20049;-73
2021/07/22 07:41:20;;;;;;;9.10;1.13;;;;;;;19.09;100.00;100674.19;5032031;28;20060;-74
2021/07/22 07:44:23;;;;;;;6.35;1.67;;;;;;;19.18;100.00;100665.47;5031913;28;20057;-74
2021/07/22 07:47:27;;;;;;;5.20;1.50;;;;;;;19.30;100.00;100675.44;5031942;28;20053;-74
2021/07/22 07:50:30;;;;;;;10.25;2.30;;;;;;;19.42;100.00;100668.53;5031366;28;20044;-74
2021/07/22 07:53:34;;;;;;;7.82;2.05;;;;;;;19.54;100.00;100672.88;5031606;28;20479;-74
2021/07/22 07:56:38;;;;;;;6.75;2.25;;;;;;;19.70;100.00;100670.50;5031408;28;20109;-74
2021/07/22 07:59:42;;;;;;;2.67;0.93;;;;;;;19.73;100.00;100664.56;5031220;28;20060;-72
2021/07/22 08:02:47;;;;;;;6.00;1.83;;;;;;;19.85;100.00;100673.78;5031668;28;20052;-72
2021/07/22 08:05:51;;;;;;;16.10;2.05;;;;;;;20.07;100.00;100668.03;5031435;28;20096;-72
2021/07/22 08:08:54;;;;;;;4.30;1.52;;;;;;;20.29;100.00;100674.34;5032043;28;20041;-71
2021/07/22 08:11:58;;;;;;;3.20;0.90;;;;;;;20.47;100.00;100669.34;5031577;28;20068;-72
2021/07/22 08:15:04;;;;;;;4.10;1.15;;;;;;;20.62;100.00;100667.72;5031591;28;20437;-72
2021/07/22 08:18:09;;;;;;;9.35;1.55;;;;;;;20.81;100.00;100662.19;5031575;28;20052;-72
2021/07/22 08:21:13;;;;;;;7.18;1.90;;;;;;;20.99;100.00;100665.09;5031680;28;20379;-72
2021/07/22 08:24:17;;;;;;;4.13;1.13;;;;;;;21.21;100.00;100658.50;5031437;28;20056;-72
2021/07/22 08:27:25;;;;;;;10.35;2.13;;;;;;;21.54;100.00;100646.03;5031183;28;20374;-73
2021/07/22 08:30:29;;;;;;;8.15;1.35;;;;;;;21.67;100.00;100643.31;5031407;28;20041;-72
2021/07/22 08:33:32;;;;;;;12.38;2.13;;;;;;;21.81;100.00;100647.75;5031231;28;20057;-72
2021/07/22 08:36:39;;;;;;;7.13;1.45;;;;;;;22.00;100.00;100647.81;5031104;28;20053;-73
2021/07/22 08:39:44;;;;;;;3.95;1.27;;;;;;;22.25;100.00;100644.38;5031460;28;20409;-72
2021/07/22 08:42:47;;;;;;;11.98;1.80;;;;;;;22.44;100.00;100642.28;5034787;28;20052;-72
2021/07/22 08:45:50;;;;;;;4.53;0.98;;;;;;;22.73;100.00;100639.78;5034634;28;20045;-72
2021/07/22 08:48:55;;;;;;;8.38;2.33;;;;;;;22.90;100.00;100632.53;5034883;28;20048;-72
2021/07/22 08:52:00;;;;;;;2.83;0.68;;;;;;;23.11;100.00;100632.66;5034816;28;20516;-72
2021/07/22 08:55:05;;;;;;;5.72;1.17;;;;;;;23.25;100.00;100628.53;5034361;28;20056;-72
2021/07/22 08:58:09;;;;;;;3.88;0.88;;;;;;;23.45;100.00;100625.09;5038392;28;20052;-72
2021/07/22 09:01:15;;;;;;;3.55;0.73;;;;;;;23.60;100.00;100622.47;5042365;28;20072;-72
2021/07/22 09:04:19;;;;;;;8.40;2.13;;;;;;;23.75;100.00;100627.56;5053596;28;20052;-73
2021/07/22 09:07:24;;;;;;;4.13;0.75;;;;;;;23.89;100.00;100624.16;5054376;28;20052;-73
2021/07/22 09:10:28;;;;;;;2.20;0.88;;;;;;;24.03;100.00;100617.13;5054357;28;20516;-72
2021/07/22 09:13:31;;;;;;;10.20;1.33;;;;;;;24.21;100.00;100626.09;5040844;28;20056;-72
2021/07/22 09:16:36;;;;;;;4.40;0.70;;;;;;;24.37;100.00;100624.94;5034634;28;20049;-72
2021/07/22 09:19:41;;;;;;;4.13;0.82;;;;;;;24.51;100.00;100621.50;5034099;28;20064;-72
2021/07/22 09:22:44;;;;;;;5.63;1.13;;;;;;;24.71;100.00;100622.81;5034392;28;20076;-72
2021/07/22 09:25:49;;;;;;;4.50;0.80;;;;;;;24.95;100.00;100619.63;5034091;28;20048;-73
2021/07/22 09:29:03;;;;;;;10.25;1.38;;;;;;;25.13;100.00;100621.47;5034274;28;20045;-72
2021/07/22 09:32:08;;;;;;;8.30;1.58;;;;;;;25.16;100.00;100614.69;5034156;28;20418;-73
2021/07/22 09:35:13;;;;;;;3.72;1.08;;;;;;;25.27;100.00;100617.22;5034008;28;20048;-73
2021/07/22 09:38:16;;;;;;;3.65;0.43;;;;;;;25.41;100.00;100609.31;5034181;28;20072;-73
2021/07/22 09:41:22;;;;;;;3.95;1.20;;;;;;;25.54;100.00;100614.94;5033791;28;20048;-74
2021/07/22 09:44:37;;;;;;;7.43;1.67;;;;;;;25.67;100.00;100609.09;5033722;28;20430;-73
2021/07/22 09:47:40;;;;;;;4.18;1.15;;;;;;;25.82;100.00;100608.41;5033606;28;20053;-73
2021/07/22 09:50:44;;;;;;;5.53;0.77;;;;;;;25.85;100.00;100607.28;5033676;28;20048;-73
2021/07/22 09:54:08;;;;;;;9.48;1.00;;;;;;;25.87;100.00;100598.94;5033303;28;20052;-73
2021/07/22 09:57:20;;;;;;;6.82;1.02;;;;;;;25.98;100.00;100601.44;5033747;28;20048;-73
2021/07/22 10:00:26;;;;;;;5.28;1.08;;;;;;;26.08;100.00;100602.44;5033055;28;20053;-74
2021/07/22 10:03:34;;;;;;;7.80;1.50;;;;;;;26.28;100.00;100598.72;5033581;28;20509;-73
2021/07/22 10:06:39;;;;;;;4.05;0.85;;;;;;;26.38;100.00;100602.53;5033199;28;20052;-73
2021/07/22 10:09:45;;;;;;;1.85;0.50;;;;;;;26.39;100.00;100601.22;5033110;28;20056;-74
2021/07/22 10:12:51;;;;;;;2.20;0.50;;;;;;;26.42;100.00;100597.22;5033391;28;20052;-73
2021/07/22 10:15:57;;;;;;;5.28;0.80;;;;;;;26.47;100.00;100592.63;5033153;28;20056;-73
2021/07/22 10:19:03;;;;;;;4.55;1.08;;;;;;;26.64;100.00;100595.75;5033296;28;20064;-75
2021/07/22 10:22:07;;;;;;;3.40;1.23;;;;;;;26.66;100.00;100593.81;5033379;28;20061;-74
2021/07/22 10:25:13;;;;;;;3.17;0.68;;;;;;;26.85;100.00;100605.69;5032312;28;20068;-73
2021/07/22 10:28:17;;;;;;;2.45;0.82;;;;;;;26.89;100.00;100599.56;5033115;28;20056;-73
2021/07/22 10:31:21;;;;;;;3.47;0.77;;;;;;;26.96;100.00;100599.56;5032994;28;20060;-73
2021/07/22 10:34:26;;;;;;;4.07;1.05;;;;;;;27.11;100.00;100592.31;5032692;28;20175;-74
2021/07/22 10:37:29;;;;;;;2.80;0.65;;;;;;;27.25;100.00;100600.09;5032706;28;20052;-73
2021/07/22 10:41:02;;;;;;;4.90;1.88;;;;;;;27.53;100.00;100593.38;5032823;28;20053;-74
2021/07/22 10:44:06;;;;;;;6.20;1.63;;;;;;;27.71;100.00;100586.47;5032818;28;20061;-74
2021/07/22 10:47:11;;;;;;;3.30;0.73;;;;;;;27.89;100.00;100595.94;5032627;28;20493;-73
2021/07/22 10:50:37;;;;;;;4.05;0.80;;;;;;;28.05;100.00;100597.41;5032794;28;20053;-72
2021/07/22 10:53:51;;;;;;;2.20;0.88;;;;;;;28.14;100.00;100588.97;5033092;28;20068;-72
2021/07/22 10:56:54;;;;;;;8.98;1.20;;;;;;;28.24;100.00;100583.38;5031384;28;20044;-72
2021/07/22 10:59:58;;;;;;;3.53;0.57;;;;;;;28.33;100.00;100586.38;5012710;28;20525;-72
2021/07/22 11:03:02;;;;;;;4.07;1.17;;;;;;;28.39;100.00;100586.91;5012298;28;20502;-72
2021/07/22 11:06:13;;;;;;;1.58;0.40;;;;;;;28.34;100.00;100584.28;5012883;28;20053;-73
2021/07/22 11:09:16;;;;;;;3.95;1.15;;;;;;;28.44;100.00;100591.66;5012662;28;20069;-72
2021/07/22 11:12:41;;;;;;;5.90;1.10;;;;;;;28.50;100.00;100586.44;5015681;28;20593;-73
2021/07/22 11:15:45;;;;;;;4.93;0.73;;;;;;;28.47;100.00;100576.16;5032221;28;20052;-73
2021/07/22 11:18:59;;;;;;;9.32;1.10;;;;;;;28.10;100.00;100571.44;5032619;28;20057;-72
2021/07/22 11:22:04;;;;;;;6.47;2.50;;;;;;;27.74;100.00;100571.75;5032684;28;20603;-72
2021/07/22 11:25:10;;;;;;;3.00;0.88;;;;;;;27.81;100.00;100560.88;5032366;28;20049;-72
2021/07/22 11:28:14;;;;;;;4.82;1.10;;;;;;;28.01;100.00;100568.41;5032576;28;20485;-71
2021/07/22 11:31:18;;;;;;;2.28;0.73;;;;;;;28.27;100.00;100562.91;5032119;28;20052;-71
2021/07/22 11:34:36;;;;;;;3.45;1.55;;;;;;;28.51;100.00;100562.19;5032088;28;20104;-72
2021/07/22 11:37:39;;;;;;;3.85;0.95;;;;;;;28.44;100.00;100560.13;5031968;28;20056;-72
2021/07/22 11:40:43;;;;;;;4.00;0.85;;;;;;;27.93;100.00;100556.97;5031942;28;20073;-71
2021/07/22 11:43:57;;;;;;;4.38;0.82;;;;;;;27.89;100.00;100555.84;5032180;28;20048;-72
2021/07/22 11:47:01;;;;;;;3.83;0.77;;;;;;;28.26;100.00;100564.25;5032072;28;20053;-72
2021/07/22 11:50:05;;;;;;;4.43;1.10;;;;;;;28.58;100.00;100557.78;5031886;28;20072;-72
2021/07/22 11:53:21;;;;;;;8.73;1.42;;;;;;;28.12;100.00;100545.06;5032159;28;20056;-72
2021/07/22 11:56:31;;;;;;;5.30;1.65;;;;;;;27.72;100.00;100540.09;5031272;28;20060;-74
2021/07/22 11:59:34;;;;;;;6.38;1.60;;;;;;;27.54;100.00;100544.19;5031963;28;20485;-72
2021/07/22 12:02:42;;;;;;;8.15;1.45;;;;;;;27.29;100.00;100542.53;5031716;28;20048;-72
2021/07/22 12:05:48;;;;;;;6.32;1.40;;;;;;;27.32;100.00;100527.06;5031808;28;20445;-72
2021/07/22 12:09:08;;;;;;;5.60;1.23;;;;;;;27.03;100.00;100535.88;5031661;28;20052;-72
2021/07/22 12:12:12;;;;;;;2.80;0.98;;;;;;;27.12;100.00;100528.81;5031980;28;20065;-72
2021/07/22 12:15:15;;;;;;;6.70;1.42;;;;;;;27.23;100.00;100530.50;5032517;28;20056;-72
2021/07/22 12:18:23;;;;;;;4.15;1.05;;;;;;;27.71;100.00;100517.78;5035830;28;20061;-72
2021/07/22 12:21:29;;;;;;;9.05;1.17;;;;;;;28.13;100.00;100518.69;5035456;28;20052;-72
2021/07/22 12:24:37;;;;;;;5.88;0.70;;;;;;;28.49;100.00;100516.16;5035258;28;20505;-72
2021/07/22 12:27:46;;;;;;;4.97;1.88;;;;;;;28.78;100.00;100513.66;5035368;28;20052;-73
2021/07/22 12:30:50;;;;;;;2.28;1.13;;;;;;;29.06;100.00;100516.00;5034848;28;20516;-72
2021/07/22 12:33:57;;;;;;;6.18;1.83;;;;;;;29.39;100.00;100510.91;5035366;28;20052;-72
2021/07/22 12:37:01;;;;;;;7.88;1.27;;;;;;;29.54;100.00;100507.84;5035370;28;20056;-72
2021/07/22 12:40:09;;;;;;;3.40;0.68;;;;;;;29.38;100.00;100505.75;5034833;28;20052;-72
2021/07/22 12:43:16;;;;;;;4.47;0.98;;;;;;;29.41;100.00;100505.31;5035240;28;20068;-72
2021/07/22 12:46:20;;;;;;;2.65;0.75;;;;;;;29.15;100.00;100500.25;5034357;28;20068;-72
2021/07/22 12:49:43;;;;;;;3.60;0.75;;;;;;;28.56;100.00;100493.75;5034819;28;20048;-72
2021/07/22 12:52:48;;;;;;;3.22;1.08;;;;;;;28.52;100.00;100497.75;5035450;28;20045;-72
2021/07/22 12:55:59;;;;;;;2.33;0.70;;;;;;;28.84;100.00;100487.56;5034595;28;20053;-72
2021/07/22 12:59:09;;;;;;;6.97;0.63;;;;;;;29.16;100.00;100481.72;5034780;28;20052;-73
2021/07/22 13:02:25;;;;;;;7.38;1.40;;;;;;;29.43;100.00;100479.69;5032239;28;20048;-72
2021/07/22 13:05:29;;;;;;;3.60;0.73;;;;;;;29.64;100.00;100477.09;5033165;28;20048;-72
2021/07/22 13:08:33;;;;;;;5.65;1.10;;;;;;;29.83;100.00;100471.50;5030856;28;20382;-72
2021/07/22 13:11:36;;;;;;;4.50;0.95;;;;;;;29.87;100.00;100471.06;5031409;28;20043;-73
2021/07/22 13:14:40;;;;;;;3.97;1.33;;;;;;;29.75;100.00;100459.38;5030730;28;20052;-72
2021/07/22 13:17:45;;;;;;;6.25;1.40;;;;;;;29.76;100.00;100460.09;5034510;28;20068;-72
2021/07/22 13:20:49;;;;;;;3.50;1.27;;;;;;;29.88;100.00;100461.84;5033874;28;20052;-72
2021/07/22 13:23:52;;;;;;;3.13;0.80;;;;;;;30.12;100.00;100450.75;5032807;28;20044;-72
2021/07/22 13:26:55;;;;;;;4.53;1.00;;;;;;;30.16;100.00;100460.47;5031997;28;20061;-72
2021/07/22 13:29:59;;;;;;;2.90;0.90;;;;;;;29.89;100.00;100457.63;5032193;28;20056;-72
2021/07/22 13:33:02;;;;;;;2.08;0.95;;;;;;;29.84;100.00;100450.00;5032576;28;20071;-73
2021/07/22 13:36:06;;;;;;;2.80;1.25;;;;;;;29.99;100.00;100449.78;5032998;28;20061;-71
2021/07/22 13:39:11;;;;;;;3.42;1.48;;;;;;;30.09;100.00;100452.72;5032081;28;20398;-72
2021/07/22 13:42:14;;;;;;;3.25;1.20;;;;;;;30.18;100.00;100446.25;5033229;28;20056;-71
2021/07/22 13:45:18;;;;;;;4.60;1.15;;;;;;;30.13;100.00;100435.78;5033742;28;20064;-73
2021/07/22 13:48:21;;;;;;;7.50;1.20;;;;;;;30.08;100.00;100436.09;5033683;28;20047;-71
2021/07/22 13:51:25;;;;;;;5.63;1.10;;;;;;;30.06;100.00;100430.19;5033598;28;20100;-71
2021/07/22 13:54:28;;;;;;;4.43;1.13;;;;;;;30.02;100.00;100429.88;5033518;28;20048;-71
2021/07/22 13:57:32;;;;;;;2.15;0.63;;;;;;;29.96;100.00;100427.25;5033409;28;20387;-71
2021/07/22 14:00:36;;;;;;;2.33;0.75;;;;;;;30.08;100.00;100427.47;5033071;28;20076;-72
2021/07/22 14:03:41;;;;;;;14.73;1.88;;;;;;;30.15;100.00;100432.34;5032208;28;20689;-71
2021/07/22 14:06:45;;;;;;;7.05;2.00;;;;;;;30.02;100.00;100424.13;5033498;28;20498;-73
2021/07/22 14:09:48;;;;;;;1.63;0.60;;;;;;;30.18;100.00;100403.16;5033427;28;20068;-72